Time;durP1;ratioP1;P1;durP2;ratioP2;P2;SDS_P1;SDS_P2;PMS_P1;PMS_P2;Temp;Humidity;BMP_temperature;BMP_pressure;BME280_temperature;BME280_humidity;BME280_pressure;Samples;Min_cycle;Max_cycle;Signal;HPM_P1;HPM_P2
2022/03/06 00:01:19;;;;;;;13.77;8.03;;;1.80;87.20;;;;;;5093513;28;20499;-66
2022/03/06 00:03:44;;;;;;;15.50;7.90;;;1.80;87.50;;;;;;5093631;28;20020;-66
2022/03/06 00:06:13;;;;;;;16.57;7.83;;;1.80;87.70;;;;;;5093512;28;20039;-67
2022/03/06 00:08:40;;;;;;;15.05;7.22;;;1.80;87.80;;;;;;5093257;28;20032;-67
2022/03/06 00:11:06;;;;;;;16.40;8.18;;;1.80;88.00;;;;;;5097184;28;20088;-67
2022/03/06 00:13:33;;;;;;;17.98;7.38;;;1.70;88.20;;;;;;5099022;28;20087;-67
2022/03/06 00:15:59;;;;;;;17.98;7.78;;;1.70;88.50;;;;;;5099966;28;20081;-67
2022/03/06 00:18:25;;;;;;;19.33;8.93;;;1.60;88.80;;;;;;5100094;28;20028;-66
2022/03/06 00:20:50;;;;;;;17.90;9.60;;;1.60;89.20;;;;;;5099321;28;20049;-66
2022/03/06 00:23:17;;;;;;;21.13;9.17;;;1.60;89.70;;;;;;5099084;28;20359;-67
2022/03/06 00:25:43;;;;;;;17.70;7.70;;;1.60;90.10;;;;;;5100386;28;20475;-67
2022/03/06 00:28:09;;;;;;;13.83;7.10;;;1.60;90.40;;;;;;5102814;28;20024;-67
2022/03/06 00:30:35;;;;;;;17.17;7.70;;;1.50;90.40;;;;;;5101752;28;20384;-67
2022/03/06 00:33:00;;;;;;;19.27;8.60;;;1.50;90.50;;;;;;5103395;28;20024;-67
2022/03/06 00:35:28;;;;;;;16.90;8.07;;;1.50;90.50;;;;;;5103479;28;20028;-67
2022/03/06 00:37:55;;;;;;;17.13;8.30;;;1.50;90.80;;;;;;5101636;28;20472;-66
2022/03/06 00:40:21;;;;;;;16.60;7.72;;;1.40;90.80;;;;;;5099913;28;20043;-66
2022/03/06 00:42:47;;;;;;;19.05;9.48;;;1.40;91.00;;;;;;5100438;28;20525;-67
2022/03/06 00:45:12;;;;;;;15.60;7.83;;;1.40;91.00;;;;;;5100284;28;20461;-65
2022/03/06 00:47:38;;;;;;;15.97;8.80;;;1.40;90.90;;;;;;5098273;28;20063;-66
2022/03/06 00:50:04;;;;;;;17.40;8.03;;;1.30;91.40;;;;;;5097559;28;20077;-66
2022/03/06 00:52:30;;;;;;;15.70;7.90;;;1.30;91.40;;;;;;5097788;28;20266;-66
2022/03/06 00:54:56;;;;;;;18.30;7.93;;;1.30;92.00;;;;;;5097033;28;20076;-66
2022/03/06 00:57:21;;;;;;;18.30;7.70;;;1.20;92.30;;;;;;5096539;28;20370;-66
2022/03/06 00:59:47;;;;;;;16.63;7.30;;;1.20;92.60;;;;;;5096901;28;20096;-66
2022/03/06 01:02:12;;;;;;;15.53;7.50;;;1.20;92.80;;;;;;5112274;28;20020;-66
2022/03/06 01:04:39;;;;;;;18.07;8.10;;;1.20;92.90;;;;;;5097242;28;20024;-66
2022/03/06 01:07:05;;;;;;;18.05;8.10;;;1.10;93.10;;;;;;5096223;28;20468;-66
2022/03/06 01:09:31;;;;;;;16.40;8.00;;;1.10;93.40;;;;;;5095913;28;20055;-66
2022/03/06 01:11:56;;;;;;;18.33;8.90;;;1.10;93.60;;;;;;5096249;28;20532;-67
2022/03/06 01:14:23;;;;;;;17.20;8.23;;;1.00;93.50;;;;;;5096054;28;20435;-67
2022/03/06 01:16:48;;;;;;;17.00;7.60;;;1.00;93.80;;;;;;5096153;28;20266;-67
2022/03/06 01:19:14;;;;;;;15.23;7.53;;;1.00;94.00;;;;;;5095654;28;20099;-66
2022/03/06 01:21:40;;;;;;;20.10;9.43;;;0.90;94.40;;;;;;5095991;28;20027;-66
2022/03/06 01:24:06;;;;;;;16.17;8.02;;;0.90;94.50;;;;;;5096146;28;20024;-67
2022/03/06 01:26:31;;;;;;;16.27;7.50;;;0.90;94.40;;;;;;5096152;28;20020;-66
2022/03/06 01:28:57;;;;;;;15.33;7.30;;;0.80;94.50;;;;;;5095591;28;20038;-67
2022/03/06 01:31:22;;;;;;;17.70;8.63;;;0.80;94.60;;;;;;5095541;28;20099;-66
2022/03/06 01:33:48;;;;;;;18.23;7.47;;;0.70;94.90;;;;;;5096143;28;20421;-66
2022/03/06 01:36:14;;;;;;;16.73;7.80;;;0.60;95.20;;;;;;5095307;28;20028;-66
2022/03/06 01:38:39;;;;;;;16.90;8.00;;;0.50;95.60;;;;;;5095577;28;20051;-66
2022/03/06 01:41:05;;;;;;;15.07;7.87;;;0.50;96.10;;;;;;5095380;28;20488;-66
2022/03/06 01:43:31;;;;;;;15.53;7.57;;;0.40;96.50;;;;;;5095605;28;20035;-66
2022/03/06 01:45:56;;;;;;;16.27;8.27;;;0.40;96.60;;;;;;5095388;28;20028;-66
2022/03/06 01:48:22;;;;;;;14.83;7.60;;;0.40;96.70;;;;;;5095219;28;20032;-66
2022/03/06 01:50:47;;;;;;;19.57;8.50;;;0.40;96.80;;;;;;5095238;28;20108;-66
2022/03/06 01:53:13;;;;;;;15.17;9.00;;;0.40;97.10;;;;;;5096189;28;20095;-66
2022/03/06 01:55:40;;;;;;;20.80;9.43;;;0.30;97.20;;;;;;5110955;28;20396;-66
2022/03/06 01:58:08;;;;;;;17.27;7.75;;;0.30;97.50;;;;;;5110695;28;20078;-66
2022/03/06 02:00:40;;;;;;;17.63;8.27;;;0.30;97.60;;;;;;5095160;28;20495;-66
2022/03/06 02:03:06;;;;;;;17.40;7.85;;;0.30;97.80;;;;;;5111082;28;20055;-66
2022/03/06 02:05:32;;;;;;;17.63;8.55;;;0.30;98.00;;;;;;5110761;28;20020;-66
2022/03/06 02:07:57;;;;;;;16.00;7.93;;;0.30;98.00;;;;;;5094758;28;20040;-65
2022/03/06 02:10:23;;;;;;;19.40;9.20;;;0.30;98.10;;;;;;5095160;28;20024;-66
2022/03/06 02:12:49;;;;;;;18.45;9.43;;;0.30;98.40;;;;;;5095167;28;20035;-66
2022/03/06 02:15:16;;;;;;;19.33;8.60;;;0.40;98.40;;;;;;5095406;28;20032;-66
2022/03/06 02:17:42;;;;;;;15.02;7.95;;;0.40;98.40;;;;;;5095306;28;20308;-66
2022/03/06 02:20:17;;;;;;;18.73;8.88;;;0.40;98.50;;;;;;5094743;28;20060;-65
2022/03/06 02:22:46;;;;;;;17.20;8.82;;;0.40;98.60;;;;;;5095027;28;20046;-66
2022/03/06 02:25:19;;;;;;;18.70;9.13;;;0.40;98.70;;;;;;5094579;28;20059;-66
2022/03/06 02:27:46;;;;;;;20.45;8.82;;;0.40;98.60;;;;;;5094654;28;20055;-66
2022/03/06 02:30:18;;;;;;;17.17;8.80;;;0.40;98.60;;;;;;5094580;28;20026;-66
2022/03/06 02:32:44;;;;;;;17.25;8.27;;;0.40;98.50;;;;;;5094363;28;20024;-67
2022/03/06 02:35:10;;;;;;;22.48;9.60;;;0.50;98.30;;;;;;5094208;28;20028;-66
2022/03/06 02:37:36;;;;;;;19.97;9.07;;;0.50;98.30;;;;;;5092943;28;20030;-66
2022/03/06 02:40:07;;;;;;;20.00;8.77;;;0.50;98.10;;;;;;5094320;28;20031;-66
2022/03/06 02:42:35;;;;;;;18.30;8.57;;;0.50;98.10;;;;;;5110021;28;20021;-65
2022/03/06 02:45:11;;;;;;;17.88;9.52;;;0.50;98.10;;;;;;5094130;28;20333;-66
2022/03/06 02:47:37;;;;;;;17.08;8.68;;;0.50;98.10;;;;;;5094013;28;20026;-66
2022/03/06 02:50:06;;;;;;;19.17;9.43;;;0.50;98.00;;;;;;5092646;28;20077;-65
2022/03/06 02:52:32;;;;;;;19.45;8.50;;;0.50;97.80;;;;;;5094628;28;20054;-65
2022/03/06 02:54:57;;;;;;;18.52;9.05;;;0.50;98.00;;;;;;5094482;28;20325;-66
2022/03/06 02:57:23;;;;;;;19.33;8.87;;;0.50;98.10;;;;;;5094399;28;20036;-66
2022/03/06 02:59:49;;;;;;;20.65;9.60;;;0.50;98.20;;;;;;5093976;28;20060;-66
2022/03/06 03:02:15;;;;;;;17.13;8.90;;;0.40;98.40;;;;;;5110113;28;20417;-66
2022/03/06 03:04:41;;;;;;;19.33;8.67;;;0.40;98.40;;;;;;5109773;28;20512;-65
2022/03/06 03:07:10;;;;;;;22.45;9.20;;;0.40;98.50;;;;;;5094104;28;20103;-66
2022/03/06 03:09:36;;;;;;;17.58;8.90;;;0.40;98.60;;;;;;5093699;28;20028;-66
2022/03/06 03:12:03;;;;;;;20.23;8.00;;;0.40;98.70;;;;;;5109705;28;20377;-66
2022/03/06 03:14:31;;;;;;;18.05;8.85;;;0.30;98.80;;;;;;5109584;28;20025;-66
2022/03/06 03:16:58;;;;;;;18.73;9.05;;;0.30;98.80;;;;;;5109569;28;20431;-66
2022/03/06 03:19:24;;;;;;;20.25;8.90;;;0.30;98.90;;;;;;5093542;28;20023;-66
2022/03/06 03:21:50;;;;;;;17.10;8.55;;;0.30;99.00;;;;;;5093744;28;20016;-66
2022/03/06 03:24:16;;;;;;;18.80;9.03;;;0.30;99.00;;;;;;5093703;28;20024;-66
2022/03/06 03:26:41;;;;;;;17.93;8.90;;;0.30;99.10;;;;;;5109369;28;20319;-66
2022/03/06 03:29:07;;;;;;;17.97;9.27;;;0.30;99.20;;;;;;5092165;28;20028;-66
2022/03/06 03:31:33;;;;;;;19.30;9.17;;;0.30;99.20;;;;;;5093527;28;20099;-66
2022/03/06 03:33:59;;;;;;;18.38;9.05;;;0.30;99.30;;;;;;5093889;28;20047;-67
2022/03/06 03:36:24;;;;;;;18.13;8.65;;;0.30;99.30;;;;;;5094409;28;20028;-67
2022/03/06 03:38:50;;;;;;;15.80;8.27;;;0.30;99.40;;;;;;5096817;28;20024;-67
2022/03/06 03:41:15;;;;;;;21.07;8.73;;;0.30;99.50;;;;;;5098815;28;20035;-67
2022/03/06 03:43:41;;;;;;;18.83;8.93;;;0.30;99.50;;;;;;5095773;28;20098;-66
2022/03/06 03:46:07;;;;;;;20.73;8.60;;;0.30;99.50;;;;;;5093396;28;20488;-66
2022/03/06 03:48:32;;;;;;;20.57;9.17;;;0.30;99.60;;;;;;5093161;28;20110;-66
2022/03/06 03:50:58;;;;;;;18.47;8.40;;;0.30;99.50;;;;;;5093455;28;20032;-66
2022/03/06 03:53:24;;;;;;;20.00;8.77;;;0.30;99.70;;;;;;5093068;28;20028;-66
2022/03/06 03:55:52;;;;;;;18.38;9.80;;;0.30;99.90;;;;;;5093100;28;20446;-65
2022/03/06 03:58:18;;;;;;;20.60;9.95;;;0.30;99.80;;;;;;5092966;28;20046;-66
2022/03/06 04:00:44;;;;;;;17.13;7.80;;;0.30;99.80;;;;;;5092825;28;20028;-66
2022/03/06 04:03:10;;;;;;;17.00;8.23;;;0.30;99.90;;;;;;5093439;28;20042;-65
2022/03/06 04:05:35;;;;;;;17.50;8.40;;;0.30;99.90;;;;;;5093102;28;20128;-66
2022/03/06 04:08:02;;;;;;;22.77;10.17;;;0.30;99.90;;;;;;5092697;28;20032;-66
2022/03/06 04:10:27;;;;;;;18.23;8.55;;;0.40;99.90;;;;;;5092855;28;20036;-66
2022/03/06 04:12:53;;;;;;;19.13;9.97;;;0.40;99.90;;;;;;5092679;28;20164;-66
2022/03/06 04:15:19;;;;;;;20.60;8.97;;;0.40;99.90;;;;;;5091588;28;20028;-66
2022/03/06 04:17:44;;;;;;;26.23;10.53;;;0.50;99.80;;;;;;5091902;28;20413;-67
2022/03/06 04:20:10;;;;;;;21.83;9.53;;;0.50;99.80;;;;;;5109807;28;20032;-66
2022/03/06 04:22:36;;;;;;;18.47;8.77;;;0.50;99.80;;;;;;5093066;28;20020;-66
2022/03/06 04:25:02;;;;;;;21.17;9.00;;;0.50;99.70;;;;;;5092866;28;20039;-66
2022/03/06 04:27:27;;;;;;;19.40;8.60;;;0.50;99.60;;;;;;5093106;28;20615;-66
2022/03/06 04:29:53;;;;;;;19.37;8.60;;;0.50;99.90;;;;;;5092841;28;20031;-66
2022/03/06 04:32:18;;;;;;;19.23;8.97;;;0.50;99.90;;;;;;5092784;28;20542;-66
2022/03/06 04:34:44;;;;;;;19.80;8.27;;;0.40;99.90;;;;;;5092720;28;20095;-66
2022/03/06 04:37:10;;;;;;;19.20;8.83;;;0.40;99.90;;;;;;5108392;28;20031;-66
2022/03/06 04:39:35;;;;;;;14.77;7.88;;;0.40;99.90;;;;;;5092804;28;20024;-66
2022/03/06 04:42:01;;;;;;;23.77;9.63;;;0.40;99.90;;;;;;5093206;28;20507;-65
2022/03/06 04:44:27;;;;;;;19.97;8.23;;;0.30;99.90;;;;;;5093249;28;20392;-66
2022/03/06 04:46:52;;;;;;;19.23;8.80;;;0.30;99.90;;;;;;5093311;28;20019;-65
2022/03/06 04:49:18;;;;;;;18.83;8.10;;;0.30;99.90;;;;;;5093320;28;20020;-66
2022/03/06 04:51:44;;;;;;;16.73;8.37;;;0.20;99.90;;;;;;5093663;28;20024;-66
2022/03/06 04:54:09;;;;;;;18.80;8.50;;;0.20;99.90;;;;;;5094119;28;20093;-65
2022/03/06 04:56:36;;;;;;;18.17;8.50;;;0.10;99.90;;;;;;5094064;28;20024;-66
2022/03/06 04:59:01;;;;;;;19.55;9.63;;;0.10;99.90;;;;;;5092439;28;20098;-65
2022/03/06 05:01:27;;;;;;;21.60;9.10;;;0.10;99.90;;;;;;5092850;28;20503;-66
2022/03/06 05:03:54;;;;;;;17.75;8.48;;;0.10;99.90;;;;;;5092746;28;20262;-65
2022/03/06 05:06:19;;;;;;;21.20;8.85;;;0.10;99.90;;;;;;5108528;28;20028;-66
2022/03/06 05:08:45;;;;;;;19.17;8.70;;;0.00;99.90;;;;;;5092424;28;20086;-66
2022/03/06 05:11:11;;;;;;;18.67;9.43;;;0.00;99.90;;;;;;5108620;28;20036;-66
2022/03/06 05:13:37;;;;;;;22.77;10.17;;;0.10;99.90;;;;;;5096041;28;20396;-66
2022/03/06 05:16:03;;;;;;;20.52;9.50;;;0.10;99.90;;;;;;5094726;28;20020;-66
2022/03/06 05:18:29;;;;;;;21.08;9.55;;;0.10;99.90;;;;;;5095830;28;20028;-66
2022/03/06 05:20:55;;;;;;;23.27;9.57;;;0.10;99.90;;;;;;5096002;28;20445;-65
2022/03/06 05:23:21;;;;;;;25.33;10.00;;;0.00;99.90;;;;;;5096093;28;20055;-66
2022/03/06 05:25:47;;;;;;;20.67;9.18;;;0.00;99.90;;;;;;5095832;28;20031;-66
2022/03/06 05:28:13;;;;;;;18.83;8.77;;;0.00;99.90;;;;;;5096198;28;20027;-66
2022/03/06 05:30:39;;;;;;;19.50;9.00;;;0.00;99.90;;;;;;5095806;28;20028;-66
2022/03/06 05:33:05;;;;;;;21.27;9.30;;;0.00;99.90;;;;;;5095724;28;20442;-65
2022/03/06 05:35:31;;;;;;;20.20;9.67;;;0.00;99.90;;;;;;5095774;28;20068;-65
2022/03/06 05:37:56;;;;;;;17.53;8.67;;;0.00;99.90;;;;;;5094049;28;20032;-65
2022/03/06 05:40:22;;;;;;;18.07;8.73;;;0.00;99.90;;;;;;5095821;28;20055;-65
2022/03/06 05:42:48;;;;;;;23.38;8.93;;;0.10;99.90;;;;;;5095449;28;20035;-65
2022/03/06 05:45:14;;;;;;;24.42;10.88;;;0.10;99.90;;;;;;5095403;28;20028;-65
2022/03/06 05:47:40;;;;;;;19.67;10.13;;;0.10;99.90;;;;;;5095838;28;20325;-65
2022/03/06 05:50:07;;;;;;;18.77;9.03;;;0.10;99.90;;;;;;5094018;28;20447;-66
2022/03/06 05:52:33;;;;;;;16.77;8.85;;;0.10;99.90;;;;;;5095400;28;20016;-66
2022/03/06 05:54:59;;;;;;;16.83;7.95;;;0.20;99.90;;;;;;5095294;28;20132;-66
2022/03/06 05:57:24;;;;;;;17.47;8.00;;;0.20;99.90;;;;;;5095318;28;20131;-66
2022/03/06 05:59:52;;;;;;;20.03;9.53;;;0.20;99.90;;;;;;5095675;28;20028;-66
2022/03/06 06:02:19;;;;;;;18.25;8.18;;;0.30;99.90;;;;;;5110911;28;20153;-65
2022/03/06 06:04:45;;;;;;;19.33;8.82;;;0.30;99.90;;;;;;5095078;28;20027;-66
2022/03/06 06:07:11;;;;;;;17.70;8.85;;;0.30;99.90;;;;;;5095278;28;20020;-67
2022/03/06 06:09:37;;;;;;;18.88;9.18;;;0.30;99.90;;;;;;5095238;28;20161;-67
2022/03/06 06:12:03;;;;;;;19.33;9.47;;;0.30;99.90;;;;;;5096081;28;20052;-66
2022/03/06 06:14:29;;;;;;;17.40;8.48;;;0.30;99.90;;;;;;5095011;28;20280;-66
2022/03/06 06:16:55;;;;;;;18.10;8.83;;;0.40;99.90;;;;;;5094942;28;20028;-66
2022/03/06 06:19:20;;;;;;;18.33;9.20;;;0.40;99.90;;;;;;5094875;28;20658;-66
2022/03/06 06:21:46;;;;;;;15.10;8.10;;;0.50;99.90;;;;;;5094755;28;20137;-66
2022/03/06 06:24:14;;;;;;;18.45;8.82;;;0.50;99.90;;;;;;5094053;28;20487;-65
2022/03/06 06:26:41;;;;;;;19.27;8.82;;;0.50;99.90;;;;;;5094683;28;20059;-66
2022/03/06 06:29:06;;;;;;;21.10;8.55;;;0.60;99.90;;;;;;5110419;28;20028;-65
2022/03/06 06:31:32;;;;;;;20.10;8.70;;;0.60;99.90;;;;;;5095625;28;20423;-66
2022/03/06 06:33:58;;;;;;;19.13;9.43;;;0.70;99.90;;;;;;5095143;28;20031;-66
2022/03/06 06:36:23;;;;;;;20.17;8.85;;;0.70;99.90;;;;;;5093310;28;20028;-67
2022/03/06 06:38:49;;;;;;;18.38;9.27;;;0.80;99.90;;;;;;5094320;28;20114;-66
2022/03/06 06:41:15;;;;;;;17.20;8.50;;;0.80;99.90;;;;;;5110127;28;20023;-66
2022/03/06 06:43:44;;;;;;;20.10;9.77;;;0.70;99.90;;;;;;5097158;28;20020;-66
2022/03/06 06:46:10;;;;;;;21.13;9.27;;;0.80;99.90;;;;;;5098219;28;20023;-65
2022/03/06 06:48:36;;;;;;;18.05;8.70;;;0.80;99.90;;;;;;5095508;28;20021;-66
2022/03/06 06:51:02;;;;;;;19.70;8.68;;;0.80;99.90;;;;;;5094557;28;20430;-67
2022/03/06 06:53:27;;;;;;;19.00;8.50;;;0.80;99.90;;;;;;5094343;28;20392;-66
2022/03/06 06:55:53;;;;;;;19.23;8.40;;;0.80;99.90;;;;;;5094362;28;20032;-66
2022/03/06 06:58:19;;;;;;;15.77;7.90;;;0.70;99.90;;;;;;5094202;28;20115;-66
2022/03/06 07:00:44;;;;;;;23.30;9.20;;;0.70;99.90;;;;;;5094309;28;20137;-66
2022/03/06 07:03:10;;;;;;;20.50;10.20;;;0.70;99.90;;;;;;5094019;28;20024;-66
2022/03/06 07:05:36;;;;;;;23.17;9.23;;;0.70;99.90;;;;;;5109673;28;20035;-66
2022/03/06 07:08:01;;;;;;;19.97;9.10;;;0.80;99.90;;;;;;5092508;28;20036;-66
2022/03/06 07:10:27;;;;;;;19.63;9.33;;;0.70;99.90;;;;;;5094143;28;20293;-64
2022/03/06 07:12:55;;;;;;;20.33;9.60;;;0.70;99.90;;;;;;5093956;28;20103;-66
2022/03/06 07:15:22;;;;;;;21.63;10.57;;;0.70;99.90;;;;;;5109678;28;20035;-67
2022/03/06 07:17:48;;;;;;;22.88;10.85;;;0.80;99.90;;;;;;5109133;28;20118;-66
2022/03/06 07:20:14;;;;;;;19.60;8.90;;;0.80;99.90;;;;;;5093907;28;20016;-64
2022/03/06 07:22:40;;;;;;;18.88;9.50;;;0.80;99.90;;;;;;5093465;28;20089;-66
2022/03/06 07:25:06;;;;;;;18.92;8.70;;;0.90;99.90;;;;;;5093817;28;20020;-65
2022/03/06 07:27:32;;;;;;;21.17;8.68;;;0.90;99.90;;;;;;5093482;28;20054;-66
2022/03/06 07:29:58;;;;;;;19.10;8.75;;;1.00;99.90;;;;;;5093506;28;20024;-66
2022/03/06 07:32:23;;;;;;;21.10;9.15;;;1.00;99.90;;;;;;5093860;28;20481;-66
2022/03/06 07:34:49;;;;;;;19.42;9.35;;;1.00;99.90;;;;;;5093326;28;20117;-65
2022/03/06 07:37:15;;;;;;;20.80;9.67;;;1.10;99.90;;;;;;5093442;28;20039;-66
2022/03/06 07:39:41;;;;;;;16.90;9.10;;;1.10;99.90;;;;;;5094482;28;20028;-65
2022/03/06 07:42:07;;;;;;;19.38;9.23;;;1.20;99.90;;;;;;5093431;28;20028;-66
2022/03/06 07:44:33;;;;;;;19.50;8.98;;;1.30;99.90;;;;;;5093683;28;20078;-66
2022/03/06 07:46:58;;;;;;;18.93;9.00;;;1.30;99.90;;;;;;5093163;28;20024;-66
2022/03/06 07:49:24;;;;;;;17.07;8.57;;;1.30;99.90;;;;;;5093057;28;20035;-66
2022/03/06 07:51:50;;;;;;;21.23;9.67;;;1.40;99.90;;;;;;5093178;28;20158;-66
2022/03/06 07:54:17;;;;;;;19.37;9.27;;;1.40;99.90;;;;;;5094076;28;20480;-66
2022/03/06 07:56:44;;;;;;;19.20;9.75;;;1.50;99.90;;;;;;5093545;28;20131;-66
2022/03/06 07:59:09;;;;;;;20.02;9.18;;;1.60;99.90;;;;;;5093356;28;20028;-67
2022/03/06 08:01:35;;;;;;;20.50;9.90;;;1.60;99.90;;;;;;5093211;28;20389;-66
2022/03/06 08:04:01;;;;;;;18.40;9.47;;;1.70;99.90;;;;;;5108571;28;20023;-66
2022/03/06 08:06:26;;;;;;;18.43;8.53;;;1.80;99.90;;;;;;5091669;28;20036;-66
2022/03/06 08:08:52;;;;;;;17.40;9.07;;;1.90;99.90;;;;;;5092732;28;20116;-66
2022/03/06 08:11:18;;;;;;;18.17;9.03;;;2.00;99.90;;;;;;5094102;28;20046;-65
2022/03/06 08:13:43;;;;;;;18.70;9.40;;;2.10;99.90;;;;;;5093186;28;20081;-66
2022/03/06 08:16:09;;;;;;;18.73;9.47;;;2.20;99.90;;;;;;5093293;28;20033;-67
2022/03/06 08:18:35;;;;;;;15.73;8.83;;;2.30;99.90;;;;;;5091531;28;20448;-66
2022/03/06 08:21:01;;;;;;;18.75;8.73;;;2.40;99.90;;;;;;5093682;28;20049;-66
2022/03/06 08:23:27;;;;;;;17.48;8.38;;;2.50;99.90;;;;;;5093598;28;20016;-66
2022/03/06 08:25:53;;;;;;;18.55;9.85;;;2.60;99.90;;;;;;5093389;28;20479;-66
2022/03/06 08:28:18;;;;;;;18.17;9.30;;;2.80;99.90;;;;;;5108872;28;20034;-65
2022/03/06 08:30:45;;;;;;;20.20;9.20;;;2.90;99.90;;;;;;5092997;28;20107;-66
2022/03/06 08:33:12;;;;;;;16.98;9.63;;;3.00;99.90;;;;;;5093285;28;20024;-66
2022/03/06 08:35:37;;;;;;;;;;;3.10;99.90;;;;;;5109296;28;20442;-68
2022/03/06 08:38:03;;;;;;;18.02;9.85;;;3.10;99.90;;;;;;5094838;28;19912;-72
2022/03/06 08:40:29;;;;;;;20.57;9.73;;;3.20;99.90;;;;;;5112018;28;20028;-69
2022/03/06 08:42:54;;;;;;;16.70;9.32;;;3.30;99.90;;;;;;5110515;28;20107;-66
2022/03/06 08:45:20;;;;;;;21.43;9.53;;;3.40;99.90;;;;;;5094093;28;20104;-64
2022/03/06 08:47:46;;;;;;;15.60;8.70;;;3.40;99.70;;;;;;5096262;28;20055;-67
2022/03/06 08:50:12;;;;;;;17.63;9.57;;;3.50;99.60;;;;;;5114400;28;20028;-72
2022/03/06 08:52:38;;;;;;;15.38;9.02;;;3.60;99.20;;;;;;5113996;28;20028;-69
2022/03/06 08:55:04;;;;;;;19.43;9.90;;;3.70;98.50;;;;;;5096874;28;20073;-70
2022/03/06 08:57:30;;;;;;;18.42;9.38;;;3.70;98.00;;;;;;5112733;28;20261;-72
2022/03/06 08:59:57;;;;;;;18.73;9.27;;;3.80;98.00;;;;;;5096669;28;20020;-72
2022/03/06 09:02:22;;;;;;;17.27;8.80;;;3.80;97.80;;;;;;5096415;28;20099;-71
2022/03/06 09:04:51;;;;;;;17.47;9.03;;;3.90;97.60;;;;;;5097461;28;20056;-73
2022/03/06 09:07:17;;;;;;;16.70;9.25;;;3.90;97.50;;;;;;5098490;28;20042;-71
2022/03/06 09:09:42;;;;;;;20.20;10.02;;;4.00;97.40;;;;;;5114214;28;20397;-72
2022/03/06 09:12:08;;;;;;;17.70;9.07;;;4.10;97.00;;;;;;5097042;28;20081;-70
2022/03/06 09:14:34;;;;;;;17.80;9.27;;;4.20;97.00;;;;;;5112251;28;20024;-67
2022/03/06 09:17:00;;;;;;;17.57;9.23;;;4.30;96.80;;;;;;5097115;28;20289;-69
2022/03/06 09:19:25;;;;;;;19.35;9.82;;;4.40;97.30;;;;;;5096498;28;20550;-69
2022/03/06 09:21:51;;;;;;;17.57;9.30;;;4.50;96.50;;;;;;5095438;28;20028;-70
2022/03/06 09:24:17;;;;;;;18.37;10.57;;;4.70;96.20;;;;;;5112976;28;20066;-69
2022/03/06 09:26:43;;;;;;;17.27;9.87;;;5.90;94.20;;;;;;5096331;28;20031;-70
2022/03/06 09:29:08;;;;;;;17.10;9.50;;;7.90;90.10;;;;;;5095554;28;20457;-75
2022/03/06 09:31:34;;;;;;;17.23;9.27;;;9.30;79.70;;;;;;5112297;28;20039;-70
2022/03/06 09:34:00;;;;;;;17.38;9.40;;;10.90;73.40;;;;;;5096269;28;20051;-73
2022/03/06 09:36:26;;;;;;;15.77;9.93;;;11.60;69.60;;;;;;5096415;28;20107;-68
2022/03/06 09:38:51;;;;;;;14.37;9.43;;;12.50;65.50;;;;;;5094500;28;20024;-68
2022/03/06 09:41:23;;;;;;;14.90;10.23;;;13.00;64.30;;;;;;5095707;28;20270;-66
2022/03/06 09:43:50;;;;;;;16.58;11.23;;;12.30;61.40;;;;;;5096786;28;20017;-67
2022/03/06 09:46:19;;;;;;;16.58;10.32;;;11.70;63.00;;;;;;5099245;28;20076;-73
2022/03/06 09:48:45;;;;;;;16.17;10.93;;;12.40;62.10;;;;;;5096495;28;20039;-69
2022/03/06 09:51:10;;;;;;;20.77;11.57;;;12.50;60.80;;;;;;5096743;28;20024;-71
2022/03/06 09:53:36;;;;;;;14.60;10.30;;;12.90;60.60;;;;;;5096334;28;20020;-70
2022/03/06 09:56:02;;;;;;;15.77;10.27;;;13.30;59.20;;;;;;5111447;28;20357;-69
2022/03/06 09:58:28;;;;;;;14.95;10.48;;;13.40;58.40;;;;;;5110880;28;20058;-70
2022/03/06 10:00:53;;;;;;;17.92;11.88;;;14.40;58.10;;;;;;5095370;28;20020;-70
2022/03/06 10:03:21;;;;;;;15.38;10.50;;;15.20;55.50;;;;;;5095603;28;20024;-73
2022/03/06 10:05:47;;;;;;;15.18;10.73;;;14.80;55.10;;;;;;5095816;28;20016;-69
2022/03/06 10:08:27;;;;;;;14.50;11.30;;;15.30;54.80;;;;;;5093887;28;20452;-69
2022/03/06 10:11:09;;;;;;;14.23;9.98;;;15.80;53.20;;;;;;5095298;28;20489;-69
2022/03/06 10:13:45;;;;;;;15.95;9.80;;;15.90;52.10;;;;;;5095050;28;20099;-69
2022/03/06 10:16:13;;;;;;;16.77;10.93;;;15.80;50.70;;;;;;5095900;28;20146;-69
2022/03/06 10:18:40;;;;;;;13.68;9.95;;;15.10;50.40;;;;;;5111627;28;20495;-69
2022/03/06 10:21:08;;;;;;;14.98;10.07;;;13.20;53.00;;;;;;5095098;28;20070;-69
2022/03/06 10:23:34;;;;;;;14.88;10.85;;;13.30;54.40;;;;;;5110716;28;20016;-70
2022/03/06 10:26:11;;;;;;;15.00;9.18;;;13.90;52.30;;;;;;5095117;28;20028;-71
2022/03/06 10:28:52;;;;;;;13.32;9.30;;;12.60;53.20;;;;;;5094126;28;20028;-69
2022/03/06 10:31:19;;;;;;;14.68;9.05;;;11.90;54.50;;;;;;5094995;28;20055;-69
2022/03/06 10:33:56;;;;;;;15.93;9.43;;;11.80;54.00;;;;;;5111205;28;20119;-70
2022/03/06 10:36:38;;;;;;;13.23;9.05;;;10.50;55.70;;;;;;5096601;28;20055;-70
2022/03/06 10:39:13;;;;;;;15.18;9.10;;;9.30;57.40;;;;;;5093513;28;20020;-71
2022/03/06 10:41:41;;;;;;;13.25;8.27;;;8.30;59.10;;;;;;5110481;28;20405;-70
2022/03/06 10:44:09;;;;;;;12.88;8.07;;;7.50;59.40;;;;;;5094516;28;20016;-69
2022/03/06 10:46:36;;;;;;;17.83;8.77;;;7.00;60.60;;;;;;5094787;28;20021;-69
2022/03/06 10:49:12;;;;;;;15.13;8.60;;;6.50;61.80;;;;;;5094506;28;20024;-69
2022/03/06 10:51:44;;;;;;;12.90;7.87;;;6.30;62.60;;;;;;5094579;28;20141;-69
2022/03/06 10:54:13;;;;;;;13.73;7.10;;;6.30;78.40;;;;;;5110570;28;20319;-70
2022/03/06 10:56:39;;;;;;;14.02;7.80;;;6.40;67.20;;;;;;5094534;28;20024;-69
2022/03/06 10:59:06;;;;;;;13.23;8.00;;;6.30;67.20;;;;;;5109979;28;20314;-67
2022/03/06 11:01:33;;;;;;;11.88;7.50;;;6.30;65.70;;;;;;5094494;28;20318;-67
2022/03/06 11:04:04;;;;;;;13.00;7.68;;;6.10;65.00;;;;;;5110040;28;20161;-68
2022/03/06 11:06:40;;;;;;;11.52;6.70;;;6.00;65.80;;;;;;5094329;28;20566;-66
2022/03/06 11:09:14;;;;;;;12.27;7.45;;;5.90;63.70;;;;;;5093502;28;20409;-68
2022/03/06 11:11:42;;;;;;;12.32;6.97;;;5.90;63.70;;;;;;5094303;28;20016;-69
2022/03/06 11:14:09;;;;;;;13.55;6.45;;;5.90;64.00;;;;;;5092694;28;20024;-69
2022/03/06 11:16:35;;;;;;;;;;;6.00;63.80;;;;;;5094321;28;20024;-67
2022/03/06 11:19:01;;;;;;;12.48;7.20;;;6.10;63.80;;;;;;5092552;28;19907;-67
2022/03/06 11:21:28;;;;;;;13.30;7.53;;;6.20;63.60;;;;;;5094574;28;20052;-67
2022/03/06 11:24:00;;;;;;;16.63;8.90;;;6.40;63.70;;;;;;5109361;28;20092;-68
2022/03/06 11:26:48;;;;;;;12.73;7.78;;;6.50;62.70;;;;;;5109850;28;20047;-69
2022/03/06 11:29:32;;;;;;;11.23;6.90;;;6.50;62.90;;;;;;5109717;28;20192;-67
2022/03/06 11:32:04;;;;;;;14.23;7.32;;;6.60;63.40;;;;;;5109299;28;20030;-67
2022/03/06 11:34:36;;;;;;;12.23;7.30;;;6.60;63.10;;;;;;5092712;28;20028;-67
2022/03/06 11:37:13;;;;;;;14.60;8.05;;;6.50;63.10;;;;;;5094070;28;20020;-67
2022/03/06 11:39:39;;;;;;;13.43;7.85;;;6.40;63.50;;;;;;5109192;28;20111;-69
2022/03/06 11:42:06;;;;;;;12.53;7.63;;;6.40;63.50;;;;;;5109117;28;20153;-69
2022/03/06 11:44:36;;;;;;;15.15;7.70;;;6.40;62.90;;;;;;5093380;28;20012;-70
2022/03/06 11:47:18;;;;;;;13.85;7.82;;;6.50;62.80;;;;;;5109046;28;20420;-70
2022/03/06 11:49:52;;;;;;;15.68;8.48;;;6.60;63.10;;;;;;5093342;28;20024;-67
2022/03/06 11:52:28;;;;;;;14.90;8.07;;;6.60;63.20;;;;;;5093544;28;20036;-67
2022/03/06 11:54:54;;;;;;;17.75;9.60;;;6.60;63.70;;;;;;5093129;28;20480;-67
2022/03/06 11:57:46;;;;;;;14.77;8.85;;;6.50;63.10;;;;;;5093219;28;20028;-68
2022/03/06 12:00:28;;;;;;;12.02;7.53;;;6.40;63.60;;;;;;5108628;28;20031;-68
2022/03/06 12:02:59;;;;;;;12.43;7.80;;;6.40;62.80;;;;;;5093359;28;20044;-70
2022/03/06 12:05:56;;;;;;;12.52;7.80;;;6.40;62.80;;;;;;5092887;28;20118;-68
2022/03/06 12:08:24;;;;;;;13.80;7.20;;;6.50;61.60;;;;;;5092464;28;20449;-70
2022/03/06 12:10:51;;;;;;;12.98;7.05;;;6.60;61.60;;;;;;5092999;28;20024;-69
2022/03/06 12:13:18;;;;;;;11.65;6.72;;;6.60;61.60;;;;;;5093543;28;20028;-69
2022/03/06 12:16:01;;;;;;;12.43;7.00;;;6.80;61.60;;;;;;5092787;28;20028;-68
2022/03/06 12:18:27;;;;;;;10.93;6.68;;;6.90;61.20;;;;;;5108362;28;20020;-68
2022/03/06 12:20:53;;;;;;;10.60;7.18;;;7.10;60.20;;;;;;5110625;28;20020;-69
2022/03/06 12:23:21;;;;;;;13.18;7.68;;;7.10;59.60;;;;;;5097703;28;20111;-69
2022/03/06 12:25:56;;;;;;;11.35;6.78;;;6.90;59.60;;;;;;5097495;28;20376;-68
2022/03/06 12:28:24;;;;;;;12.57;6.88;;;7.10;60.20;;;;;;5113343;28;20507;-68
2022/03/06 12:30:51;;;;;;;12.73;7.00;;;7.30;60.10;;;;;;5097665;28;20111;-70
2022/03/06 12:33:26;;;;;;;10.40;6.38;;;7.40;59.80;;;;;;5096062;28;20020;-68
2022/03/06 12:36:13;;;;;;;10.52;6.40;;;7.30;59.50;;;;;;5112800;28;20020;-69
2022/03/06 12:38:39;;;;;;;14.35;7.13;;;7.10;59.70;;;;;;5112936;28;20431;-67
2022/03/06 12:41:06;;;;;;;10.98;6.95;;;7.10;60.00;;;;;;5097045;28;20073;-68
2022/03/06 12:43:32;;;;;;;10.40;6.47;;;7.20;60.00;;;;;;5098759;28;20043;-68
2022/03/06 12:46:01;;;;;;;11.40;7.05;;;7.40;59.80;;;;;;5099476;28;20039;-70